createdAt,value
2023-02-07T00:01:21.612Z,45.08
2023-02-07T00:03:48.539Z,48.53
2023-02-07T00:06:20.652Z,46.05
2023-02-07T00:08:47.720Z,45.08
2023-02-07T00:11:16.968Z,49.30
2023-02-07T00:13:44.686Z,48.65
2023-02-07T00:16:11.681Z,48.80
2023-02-07T00:18:40.278Z,48.38
2023-02-07T00:21:08.867Z,49.88
2023-02-07T00:23:35.890Z,51.38
2023-02-07T00:26:03.336Z,52.20
2023-02-07T00:28:30.391Z,48.28
2023-02-07T00:31:07.535Z,49.47
2023-02-07T00:33:38.510Z,49.97
2023-02-07T00:36:08.450Z,49.63
2023-02-07T00:38:35.337Z,47.05
2023-02-07T00:41:02.458Z,50.72
2023-02-07T00:43:30.334Z,56.45
2023-02-07T00:46:01.696Z,47.00
2023-02-07T00:48:29.471Z,49.17
2023-02-07T00:50:56.404Z,49.00
2023-02-07T00:53:23.321Z,50.70
2023-02-07T00:55:50.387Z,49.28
2023-02-07T00:58:17.246Z,47.40
2023-02-07T01:00:45.358Z,48.65
2023-02-07T01:03:12.228Z,50.55
2023-02-07T01:05:39.486Z,45.72
2023-02-07T01:08:06.714Z,46.50
2023-02-07T01:10:35.437Z,47.45
2023-02-07T01:13:02.278Z,45.90
2023-02-07T01:15:29.275Z,45.95
2023-02-07T01:17:56.215Z,48.03
2023-02-07T01:20:23.093Z,47.60
2023-02-07T01:22:50.067Z,49.00
2023-02-07T01:25:17.040Z,47.88
2023-02-07T01:27:43.899Z,45.55
2023-02-07T01:30:11.502Z,44.58
2023-02-07T01:32:38.379Z,49.95
2023-02-07T01:35:05.415Z,46.47
2023-02-07T01:37:32.665Z,45.63
2023-02-07T01:39:59.536Z,45.58
2023-02-07T01:42:28.055Z,49.42
2023-02-07T01:44:54.798Z,50.47
2023-02-07T01:47:22.446Z,48.45
2023-02-07T01:49:50.325Z,47.72
2023-02-07T01:52:19.910Z,48.45
2023-02-07T01:54:48.988Z,52.00
2023-02-07T01:57:16.184Z,48.10
2023-02-07T01:59:44.218Z,47.03
2023-02-07T02:02:15.516Z,46.55
2023-02-07T02:04:42.607Z,48.80
2023-02-07T02:07:10.446Z,47.45
2023-02-07T02:09:37.938Z,47.85
2023-02-07T02:12:47.860Z,47.28
2023-02-07T02:15:33.045Z,50.00
2023-02-07T02:18:02.843Z,47.60
2023-02-07T02:20:49.813Z,51.47
2023-02-07T02:23:58.458Z,47.42
2023-02-07T02:26:34.170Z,45.78
2023-02-07T02:29:19.520Z,48.55
2023-02-07T02:34:38.042Z,47.90
2023-02-07T02:37:15.519Z,46.47
2023-02-07T02:40:04.534Z,50.10
2023-02-07T02:42:35.502Z,47.38
2023-02-07T02:45:12.501Z,47.85
2023-02-07T02:47:40.020Z,48.85
2023-02-07T02:50:17.774Z,50.20
2023-02-07T02:52:50.633Z,48.80
2023-02-07T02:55:54.025Z,48.40
2023-02-07T02:58:40.448Z,44.33
2023-02-07T03:01:07.316Z,45.60
2023-02-07T03:03:46.736Z,48.90
2023-02-07T03:06:46.633Z,38.33
2023-02-07T03:09:43.286Z,39.15
2023-02-07T03:12:30.327Z,40.35
2023-02-07T03:15:00.895Z,38.83
2023-02-07T03:17:53.887Z,37.53
2023-02-07T03:20:27.450Z,37.78
2023-02-07T03:22:54.369Z,36.40
2023-02-07T03:25:21.291Z,35.10
2023-02-07T03:27:48.268Z,34.70
2023-02-07T03:30:16.901Z,35.08
2023-02-07T03:32:45.512Z,35.15
2023-02-07T03:35:12.445Z,33.63
2023-02-07T03:37:51.554Z,33.58
2023-02-07T03:40:18.550Z,33.80
2023-02-07T03:42:54.122Z,31.70
2023-02-07T03:45:21.237Z,30.50
2023-02-07T03:47:48.156Z,32.97
2023-02-07T03:50:16.047Z,30.55
2023-02-07T03:52:42.955Z,31.77
2023-02-07T03:55:10.045Z,30.20
2023-02-07T03:57:37.020Z,28.92
2023-02-07T04:00:05.780Z,29.27
2023-02-07T04:02:40.094Z,31.20
2023-02-07T04:05:07.218Z,30.63
2023-02-07T04:07:34.125Z,30.15
2023-02-07T04:10:00.971Z,30.08
2023-02-07T04:12:32.875Z,28.95
2023-02-07T04:15:02.993Z,28.70
2023-02-07T04:17:31.516Z,31.90
2023-02-07T04:19:58.781Z,30.00
2023-02-07T04:22:25.650Z,29.27
2023-02-07T04:24:52.486Z,30.58
2023-02-07T04:27:19.373Z,26.40
2023-02-07T04:29:46.225Z,30.20
2023-02-07T04:32:13.854Z,28.20
2023-02-07T04:34:40.831Z,28.92
2023-02-07T04:37:07.689Z,27.33
2023-02-07T04:39:34.739Z,27.10
2023-02-07T04:42:01.845Z,33.65
2023-02-07T04:44:28.833Z,32.40
2023-02-07T04:46:55.679Z,32.92
2023-02-07T04:49:22.830Z,31.08
2023-02-07T04:51:49.927Z,40.13
2023-02-07T04:54:16.807Z,33.05
2023-02-07T04:56:43.943Z,31.90
2023-02-07T04:59:11.020Z,32.30
2023-02-07T05:01:37.916Z,25.55
2023-02-07T05:04:06.081Z,28.77
2023-02-07T05:06:33.183Z,28.10
2023-02-07T05:09:00.116Z,26.25
2023-02-07T05:11:27.147Z,26.92
2023-02-07T05:13:54.173Z,23.05
2023-02-07T05:16:21.079Z,27.30
2023-02-07T05:18:48.241Z,25.73
2023-02-07T05:21:15.319Z,24.10
2023-02-07T05:23:42.378Z,22.73
2023-02-07T05:26:09.486Z,23.63
2023-02-07T05:28:36.554Z,24.65
2023-02-07T05:31:03.840Z,19.27
2023-02-07T05:33:30.986Z,22.90
2023-02-07T05:36:00.551Z,22.52
2023-02-07T05:38:27.543Z,20.15
2023-02-07T05:40:54.739Z,21.85
2023-02-07T05:43:21.876Z,20.02
2023-02-07T05:45:49.292Z,20.75
2023-02-07T05:48:16.401Z,22.05
2023-02-07T05:50:43.380Z,18.92
2023-02-07T05:53:10.798Z,17.88
2023-02-07T05:55:38.280Z,18.13
2023-02-07T05:58:05.518Z,17.45
2023-02-07T06:00:32.525Z,18.73
2023-02-07T06:02:59.744Z,19.15
2023-02-07T06:05:31.690Z,18.65
2023-02-07T06:07:59.085Z,17.02
2023-02-07T06:10:26.280Z,18.48
2023-02-07T06:12:53.314Z,16.38
2023-02-07T06:15:20.325Z,16.15
2023-02-07T06:17:47.610Z,17.67
2023-02-07T06:20:14.787Z,15.95
2023-02-07T06:22:41.963Z,16.50
2023-02-07T06:25:11.972Z,17.25
2023-02-07T06:27:41.923Z,16.85
2023-02-07T06:30:10.187Z,27.50
2023-02-07T06:32:37.389Z,24.45
2023-02-07T06:35:05.524Z,21.20
2023-02-07T06:37:32.634Z,20.42
2023-02-07T06:39:59.594Z,20.05
2023-02-07T06:42:26.609Z,17.88
2023-02-07T06:44:53.806Z,17.83
2023-02-07T06:47:20.976Z,18.25
2023-02-07T06:49:48.058Z,18.83
2023-02-07T06:52:15.203Z,16.83
2023-02-07T06:54:42.401Z,16.70
2023-02-07T06:57:09.571Z,17.52
2023-02-07T06:59:36.664Z,17.42
2023-02-07T07:02:04.081Z,16.95
2023-02-07T07:04:31.531Z,16.27
2023-02-07T07:06:58.671Z,15.88
2023-02-07T07:09:26.733Z,23.38
2023-02-07T07:11:54.021Z,36.03
2023-02-07T07:14:21.236Z,31.85
2023-02-07T07:16:48.487Z,31.88
2023-02-07T07:19:15.744Z,29.75
2023-02-07T07:21:42.699Z,25.38
2023-02-07T07:24:09.673Z,24.63
2023-02-07T07:26:48.399Z,27.38
2023-02-07T07:29:17.717Z,23.45
2023-02-07T07:31:45.078Z,23.92
2023-02-07T07:34:12.289Z,24.42
2023-02-07T07:36:39.359Z,21.85
2023-02-07T07:39:08.428Z,22.67
2023-02-07T07:41:35.346Z,21.13
2023-02-07T07:44:02.367Z,20.88
2023-02-07T07:46:29.519Z,20.58
2023-02-07T07:48:56.477Z,20.75
2023-02-07T07:51:23.555Z,20.58
2023-02-07T07:53:50.683Z,20.85
2023-02-07T07:56:17.739Z,20.73
2023-02-07T07:58:44.769Z,24.38
2023-02-07T08:01:11.726Z,23.98
2023-02-07T08:03:38.709Z,26.00
2023-02-07T08:06:06.225Z,23.23
2023-02-07T08:08:33.331Z,24.00
2023-02-07T08:11:04.204Z,24.35
2023-02-07T08:13:33.080Z,24.77
2023-02-07T08:16:01.096Z,26.38
2023-02-07T08:18:28.656Z,26.05
2023-02-07T08:20:55.887Z,25.85
2023-02-07T08:23:23.014Z,26.60
2023-02-07T08:25:50.258Z,28.08
2023-02-07T08:28:17.525Z,26.45
2023-02-07T08:30:47.616Z,26.10
2023-02-07T08:33:15.517Z,27.45
2023-02-07T08:35:42.552Z,28.27
2023-02-07T08:38:09.469Z,29.60
2023-02-07T08:40:37.158Z,28.40
2023-02-07T08:43:07.064Z,30.80
2023-02-07T08:45:34.190Z,28.25
2023-02-07T08:48:01.263Z,29.50
2023-02-07T08:50:28.202Z,29.38
2023-02-07T08:52:55.144Z,29.00
2023-02-07T08:55:22.102Z,29.45
2023-02-07T08:57:49.195Z,29.45
2023-02-07T09:00:16.856Z,30.35
2023-02-07T09:02:43.869Z,30.38
2023-02-07T09:05:11.415Z,27.85
2023-02-07T09:07:38.382Z,31.23
2023-02-07T09:10:06.896Z,27.83
2023-02-07T09:12:34.367Z,30.27
2023-02-07T09:15:01.324Z,29.80
2023-02-07T09:17:28.253Z,32.97
2023-02-07T09:19:55.201Z,31.30
2023-02-07T09:22:22.248Z,27.63
2023-02-07T09:24:49.240Z,30.80
2023-02-07T09:27:16.254Z,30.85
2023-02-07T09:29:44.058Z,26.25
2023-02-07T09:32:11.063Z,28.25
2023-02-07T09:34:38.069Z,25.70
2023-02-07T09:37:05.023Z,27.13
2023-02-07T09:39:33.120Z,26.75
2023-02-07T09:42:14.238Z,27.88
2023-02-07T09:44:59.748Z,26.98
2023-02-07T09:47:27.105Z,26.10
2023-02-07T09:50:23.776Z,27.60
2023-02-07T09:52:52.729Z,24.58
2023-02-07T09:55:22.588Z,25.63
2023-02-07T09:57:52.987Z,25.67
2023-02-07T10:00:34.132Z,26.92
2023-02-07T10:03:11.851Z,28.23
2023-02-07T10:06:17.447Z,27.25
2023-02-07T10:08:51.677Z,29.70
2023-02-07T10:11:35.810Z,26.80
2023-02-07T10:14:24.356Z,62.92
2023-02-07T10:17:30.446Z,44.83
2023-02-07T10:20:16.777Z,40.85
2023-02-07T10:23:04.646Z,42.85
2023-02-07T10:25:43.696Z,42.30
2023-02-07T10:28:16.562Z,45.53
2023-02-07T10:30:51.618Z,39.78
2023-02-07T10:33:20.481Z,39.78
2023-02-07T10:35:47.555Z,42.55
2023-02-07T10:38:28.859Z,38.92
2023-02-07T10:41:11.227Z,38.95
2023-02-07T10:43:38.830Z,37.58
2023-02-07T10:46:06.988Z,40.25
2023-02-07T10:48:34.089Z,40.33
2023-02-07T10:51:02.545Z,37.20
2023-02-07T10:53:55.144Z,37.13
2023-02-07T10:56:27.035Z,37.00
2023-02-07T10:58:57.097Z,37.30
2023-02-07T11:01:28.306Z,34.67
2023-02-07T11:03:55.353Z,35.42
2023-02-07T11:06:30.132Z,35.70
2023-02-07T11:09:20.024Z,33.78
2023-02-07T11:11:50.869Z,33.97
2023-02-07T11:14:28.129Z,38.50
2023-02-07T11:16:59.288Z,46.50
2023-02-07T11:19:29.860Z,46.95
2023-02-07T11:22:19.354Z,45.45
2023-02-07T11:24:46.367Z,48.97
2023-02-07T11:27:17.293Z,50.75
2023-02-07T11:29:53.849Z,49.15
2023-02-07T11:32:21.918Z,44.40
2023-02-07T11:34:58.398Z,48.00
2023-02-07T11:37:30.318Z,47.15
2023-02-07T11:40:19.735Z,44.33
2023-02-07T11:43:09.914Z,41.67
2023-02-07T11:45:37.310Z,41.03
2023-02-07T11:48:04.881Z,38.30
2023-02-07T11:50:40.281Z,37.05
2023-02-07T11:53:07.676Z,38.33
2023-02-07T11:55:38.461Z,36.65
2023-02-07T11:58:47.529Z,38.03
2023-02-07T12:01:17.656Z,36.40
2023-02-07T12:03:48.358Z,34.05
2023-02-07T12:06:18.366Z,34.40
2023-02-07T12:08:45.354Z,36.17
2023-02-07T12:11:36.305Z,39.60
2023-02-07T12:14:25.446Z,31.00
2023-02-07T12:16:54.288Z,32.45
2023-02-07T12:19:33.223Z,33.78
2023-02-07T12:22:15.018Z,31.88
2023-02-07T12:25:01.521Z,33.30
2023-02-07T12:27:39.748Z,30.77
2023-02-07T12:30:21.757Z,29.13
2023-02-07T12:32:58.179Z,30.65
2023-02-07T12:35:25.249Z,29.02
2023-02-07T12:38:13.944Z,27.60
2023-02-07T12:41:07.299Z,30.63
2023-02-07T12:43:37.978Z,30.52
2023-02-07T12:46:54.309Z,27.10
2023-02-07T12:49:43.576Z,26.17
2023-02-07T12:52:39.777Z,27.52
2023-02-07T12:55:16.028Z,26.77
2023-02-07T12:58:13.908Z,26.55
2023-02-07T13:01:22.359Z,27.83
2023-02-07T13:03:49.375Z,26.60
2023-02-07T13:06:22.533Z,25.23
2023-02-07T13:08:55.561Z,24.45
2023-02-07T13:11:54.795Z,26.08
2023-02-07T13:14:33.800Z,28.17
2023-02-07T13:17:16.131Z,25.50
2023-02-07T13:20:19.406Z,24.63
2023-02-07T13:22:47.729Z,24.33
2023-02-07T13:25:26.621Z,25.60
2023-02-07T13:27:55.514Z,23.70
2023-02-07T13:30:22.777Z,25.08
2023-02-07T13:32:49.760Z,24.63
2023-02-07T13:35:26.516Z,24.90
2023-02-07T13:38:03.712Z,33.97
2023-02-07T13:40:45.278Z,28.00
2023-02-07T13:43:30.724Z,24.83
2023-02-07T13:46:40.361Z,24.80
2023-02-07T13:49:39.632Z,25.30
2023-02-07T13:52:12.625Z,25.70
2023-02-07T13:54:42.276Z,24.17
2023-02-07T13:57:38.504Z,25.42
2023-02-07T14:00:07.736Z,27.02
2023-02-07T14:03:03.906Z,27.30
2023-02-07T14:05:35.789Z,26.48
2023-02-07T14:08:26.033Z,29.20
2023-02-07T14:10:56.312Z,26.33
2023-02-07T14:13:25.968Z,23.60
2023-02-07T14:16:12.394Z,26.00
2023-02-07T14:18:52.231Z,26.08
2023-02-07T14:21:19.192Z,26.73
2023-02-07T14:24:09.111Z,25.35
2023-02-07T14:26:45.180Z,25.10
2023-02-07T14:29:41.697Z,25.42
2023-02-07T14:32:14.839Z,26.95
2023-02-07T14:35:00.448Z,27.40
2023-02-07T14:37:49.421Z,24.75
2023-02-07T14:40:44.556Z,24.15
2023-02-07T14:43:11.625Z,25.55
2023-02-07T14:46:17.034Z,27.42
2023-02-07T14:49:06.603Z,26.33
2023-02-07T14:51:41.042Z,24.40
2023-02-07T14:54:29.917Z,25.85
2023-02-07T14:57:09.152Z,22.17
2023-02-07T14:59:54.296Z,23.67
2023-02-07T15:02:33.363Z,24.05
2023-02-07T15:05:15.972Z,23.05
2023-02-07T15:07:47.236Z,21.60
2023-02-07T15:10:24.375Z,23.05
2023-02-07T15:12:54.112Z,23.65
2023-02-07T15:15:34.919Z,22.92
2023-02-07T15:18:02.020Z,21.15
2023-02-07T15:20:31.226Z,22.00
2023-02-07T15:22:58.740Z,21.25
2023-02-07T15:25:27.892Z,21.65
2023-02-07T15:28:28.376Z,23.23
2023-02-07T15:31:07.178Z,21.40
2023-02-07T15:33:58.251Z,20.80
2023-02-07T15:36:45.896Z,19.88
2023-02-07T15:39:21.400Z,20.40
2023-02-07T15:41:49.662Z,20.48
2023-02-07T15:44:25.386Z,19.52
2023-02-07T15:46:59.336Z,20.65
2023-02-07T15:49:35.277Z,19.33
2023-02-07T15:52:20.447Z,20.67
2023-02-07T15:57:41.731Z,19.02
2023-02-07T16:00:13.954Z,20.95
2023-02-07T16:02:43.173Z,20.25
2023-02-07T16:05:20.329Z,18.70
2023-02-07T16:07:50.170Z,18.63
2023-02-07T16:10:23.175Z,18.65
2023-02-07T16:12:54.372Z,20.33
2023-02-07T16:15:34.862Z,19.40
2023-02-07T16:18:02.732Z,20.08
2023-02-07T16:20:31.197Z,18.88
2023-02-07T16:23:00.471Z,19.52
2023-02-07T16:25:31.522Z,21.85
2023-02-07T16:27:58.621Z,20.20
2023-02-07T16:30:30.154Z,19.92
2023-02-07T16:32:57.253Z,19.38
2023-02-07T16:35:26.026Z,18.52
2023-02-07T16:37:53.606Z,21.83
2023-02-07T16:40:22.352Z,18.42
2023-02-07T16:42:49.314Z,20.58
2023-02-07T16:45:18.585Z,20.63
2023-02-07T16:47:45.658Z,20.55
2023-02-07T16:50:23.247Z,19.55
2023-02-07T16:52:51.133Z,20.33
2023-02-07T16:55:19.092Z,20.42
2023-02-07T16:57:47.113Z,19.02
2023-02-07T17:00:24.989Z,18.80
2023-02-07T17:02:52.431Z,18.83
2023-02-07T17:05:20.573Z,17.98
2023-02-07T17:07:48.070Z,21.20
2023-02-07T17:10:27.918Z,22.05
2023-02-07T17:12:55.268Z,21.17
2023-02-07T17:15:22.383Z,21.85
2023-02-07T17:17:49.878Z,20.73
2023-02-07T17:20:26.915Z,22.38
2023-02-07T17:22:54.587Z,21.65
2023-02-07T17:25:22.478Z,21.95
2023-02-07T17:27:49.561Z,21.35
2023-02-07T17:30:22.217Z,22.27
2023-02-07T17:32:49.318Z,22.38
2023-02-07T17:35:16.441Z,22.13
2023-02-07T17:37:43.588Z,22.00
2023-02-07T17:40:22.535Z,23.08
2023-02-07T17:42:49.882Z,21.95
2023-02-07T17:45:17.038Z,23.75
2023-02-07T17:47:44.081Z,22.52
2023-02-07T17:50:39.626Z,22.95
2023-02-07T17:53:07.634Z,23.92
2023-02-07T17:55:35.184Z,24.48
2023-02-07T17:58:03.509Z,21.55
2023-02-07T18:00:40.272Z,23.40
2023-02-07T18:03:07.810Z,26.27
2023-02-07T18:05:34.927Z,26.70
2023-02-07T18:08:02.401Z,24.90
2023-02-07T18:10:31.765Z,24.45
2023-02-07T18:12:58.903Z,25.85
2023-02-07T18:15:26.443Z,25.70
2023-02-07T18:17:53.773Z,24.95
2023-02-07T18:20:25.761Z,22.30
2023-02-07T18:22:54.549Z,23.45
2023-02-07T18:25:22.261Z,26.30
2023-02-07T18:27:51.135Z,22.55
2023-02-07T18:30:19.292Z,24.63
2023-02-07T18:32:46.479Z,26.70
2023-02-07T18:35:13.644Z,26.33
2023-02-07T18:37:40.768Z,25.15
2023-02-07T18:40:08.113Z,24.77
2023-02-07T18:42:35.146Z,24.90
2023-02-07T18:45:03.407Z,23.83
2023-02-07T18:47:31.659Z,25.25
2023-02-07T18:49:58.691Z,25.10
2023-02-07T18:52:25.732Z,24.23
2023-02-07T18:54:52.670Z,25.92
2023-02-07T18:57:19.645Z,25.90
2023-02-07T18:59:46.645Z,27.55
2023-02-07T19:02:13.902Z,25.58
2023-02-07T19:04:40.847Z,27.02
2023-02-07T19:07:07.938Z,25.75
2023-02-07T19:09:35.136Z,28.35
2023-02-07T19:12:02.133Z,28.85
2023-02-07T19:14:32.889Z,27.67
2023-02-07T19:17:00.129Z,27.67
2023-02-07T19:19:29.707Z,25.88
2023-02-07T19:21:56.787Z,28.70
2023-02-07T19:24:23.888Z,29.38
2023-02-07T19:26:52.952Z,31.02
2023-02-07T19:29:27.877Z,30.20
2023-02-07T19:31:59.233Z,28.67
2023-02-07T19:34:26.175Z,29.52
2023-02-07T19:36:53.869Z,29.60
2023-02-07T19:39:21.372Z,30.00
2023-02-07T19:41:48.759Z,32.15
2023-02-07T19:44:16.491Z,30.17
2023-02-07T19:46:44.223Z,30.88
2023-02-07T19:49:12.625Z,32.97
2023-02-07T19:51:39.841Z,32.92
2023-02-07T19:54:06.858Z,33.35
2023-02-07T19:56:34.060Z,32.53
2023-02-07T19:59:05.177Z,32.33
2023-02-07T20:01:33.184Z,29.73
2023-02-07T20:04:00.773Z,31.60
2023-02-07T20:06:31.481Z,32.53
2023-02-07T20:08:58.984Z,32.63
2023-02-07T20:11:26.004Z,32.78
2023-02-07T20:13:54.626Z,32.50
2023-02-07T20:16:23.685Z,35.20
2023-02-07T20:18:52.082Z,34.75
2023-02-07T20:21:20.920Z,36.50
2023-02-07T20:23:49.946Z,39.75
2023-02-07T20:26:19.398Z,35.83
2023-02-07T20:28:46.513Z,37.63
2023-02-07T20:31:14.393Z,34.88
2023-02-07T20:33:41.940Z,37.90
2023-02-07T20:36:09.545Z,37.35
2023-02-07T20:38:36.398Z,40.45
2023-02-07T20:41:12.346Z,37.25
2023-02-07T20:43:39.990Z,38.75
2023-02-07T20:46:08.148Z,36.97
2023-02-07T20:48:35.068Z,37.67
2023-02-07T20:51:06.274Z,37.33
2023-02-07T20:53:33.120Z,37.72
2023-02-07T20:56:14.158Z,37.63
2023-02-07T20:58:41.093Z,39.28
2023-02-07T21:01:14.398Z,39.38
2023-02-07T21:03:41.682Z,35.88
2023-02-07T21:06:08.739Z,36.10
2023-02-07T21:08:36.276Z,36.60
2023-02-07T21:11:03.541Z,37.38
2023-02-07T21:13:30.678Z,38.00
2023-02-07T21:16:03.200Z,38.05
2023-02-07T21:18:31.381Z,40.80
2023-02-07T21:20:58.523Z,38.35
2023-02-07T21:23:25.588Z,36.65
2023-02-07T21:25:54.038Z,38.65
2023-02-07T21:28:21.049Z,37.25
2023-02-07T21:30:47.918Z,40.42
2023-02-07T21:33:15.696Z,38.75
2023-02-07T21:35:42.593Z,38.47
2023-02-07T21:38:09.472Z,37.08
2023-02-07T21:40:36.393Z,37.70
2023-02-07T21:43:04.818Z,39.65
2023-02-07T21:45:31.838Z,39.60
2023-02-07T21:47:58.676Z,38.70
2023-02-07T21:50:26.210Z,39.42
2023-02-07T21:52:53.089Z,38.40
2023-02-07T21:55:21.186Z,39.30
2023-02-07T21:57:48.070Z,39.90
2023-02-07T22:00:15.079Z,39.83
2023-02-07T22:02:41.974Z,38.47
2023-02-07T22:05:08.875Z,39.33
2023-02-07T22:07:35.736Z,37.40
2023-02-07T22:10:02.569Z,43.08
2023-02-07T22:12:29.535Z,37.38
2023-02-07T22:14:56.604Z,37.38
2023-02-07T22:17:23.572Z,39.35
2023-02-07T22:19:51.580Z,37.97
2023-02-07T22:22:18.738Z,38.40
2023-02-07T22:24:45.613Z,40.20
2023-02-07T22:27:12.587Z,37.50
2023-02-07T22:29:39.485Z,37.22
2023-02-07T22:32:06.300Z,41.58
2023-02-07T22:34:34.002Z,41.92
2023-02-07T22:37:00.952Z,39.58
2023-02-07T22:39:27.821Z,40.13
2023-02-07T22:41:56.448Z,43.78
2023-02-07T22:44:24.940Z,39.78
2023-02-07T22:46:52.081Z,38.85
2023-02-07T22:49:19.431Z,41.78
2023-02-07T22:51:46.276Z,43.42
2023-02-07T22:54:16.996Z,40.95
2023-02-07T22:56:45.058Z,42.30
2023-02-07T22:59:12.856Z,39.63
2023-02-07T23:01:40.426Z,40.95
2023-02-07T23:04:12.974Z,40.78
2023-02-07T23:06:40.088Z,42.65
2023-02-07T23:09:06.996Z,43.70
2023-02-07T23:11:34.022Z,42.60
2023-02-07T23:14:00.943Z,43.67
2023-02-07T23:16:29.113Z,42.05
2023-02-07T23:18:56.958Z,40.83
2023-02-07T23:21:24.443Z,39.47
2023-02-07T23:23:51.386Z,41.63
2023-02-07T23:26:20.016Z,40.42
2023-02-07T23:28:46.852Z,40.50
2023-02-07T23:31:14.918Z,46.22
2023-02-07T23:33:41.982Z,43.70
2023-02-07T23:36:09.016Z,42.17
2023-02-07T23:38:36.102Z,45.10
2023-02-07T23:41:03.061Z,39.17
2023-02-07T23:43:29.901Z,41.28
2023-02-07T23:45:56.744Z,43.88
2023-02-07T23:48:23.659Z,43.05
2023-02-07T23:50:54.353Z,43.63
2023-02-07T23:53:21.519Z,41.17
2023-02-07T23:55:49.196Z,41.88
2023-02-07T23:58:16.656Z,43.47
